Time;durP1;ratioP1;P1;durP2;ratioP2;P2;SDS_P1;SDS_P2;PMS_P1;PMS_P2;Temp;Humidity;BMP_temperature;BMP_pressure;BME280_temperature;BME280_humidity;BME280_pressure;Samples;Min_cycle;Max_cycle;Signal;HPM_P1;HPM_P2
2022/06/25 00:01:14;;;;;;;14.18;9.30;;;;;;;;;;5060722;27;95512;-73
2022/06/25 00:03:41;;;;;;;15.60;9.55;;;;;;;;;;5057408;27;96817;-72
2022/06/25 00:06:10;;;;;;;15.43;9.25;;;;;;;;;;5063914;27;97178;-72
2022/06/25 00:08:44;;;;;;;11.82;9.02;;;;;;;;;;5062610;27;96857;-72
2022/06/25 00:13:58;;;;;;;11.80;8.98;;;;;;;;;;5043260;27;97223;-72
2022/06/25 00:16:24;;;;;;;14.30;8.52;;;;;;;;;;5063020;27;97011;-72
2022/06/25 00:18:51;;;;;;;14.13;8.90;;;;;;;;;;5064758;27;98018;-73
2022/06/25 00:21:18;;;;;;;12.52;9.10;;;;;;;;;;5060374;27;95405;-73
2022/06/25 00:23:44;;;;;;;10.60;8.40;;;;;;;;;;5054969;27;97129;-72
2022/06/25 00:26:10;;;;;;;10.95;8.90;;;;;;;;;;5051241;27;97541;-72
2022/06/25 00:28:37;;;;;;;13.88;8.98;;;;;;;;;;5060839;27;96959;-73
2022/06/25 00:31:04;;;;;;;13.38;8.98;;;;;;;;;;5064614;27;96798;-71
2022/06/25 00:33:30;;;;;;;17.70;9.55;;;;;;;;;;5056579;27;97265;-72
2022/06/25 00:35:57;;;;;;;11.45;9.27;;;;;;;;;;5069184;27;95789;-71
2022/06/25 00:38:23;;;;;;;13.95;9.27;;;;;;;;;;5057897;27;97264;-72
2022/06/25 00:40:49;;;;;;;16.00;9.38;;;;;;;;;;5064205;27;95233;-72
2022/06/25 00:43:16;;;;;;;14.27;9.23;;;;;;;;;;5057347;27;96907;-73
2022/06/25 00:45:43;;;;;;;14.98;9.63;;;;;;;;;;5058906;27;97402;-72
2022/06/25 00:48:11;;;;;;;14.27;9.60;;;;;;;;;;5063595;27;96546;-73
2022/06/25 00:50:37;;;;;;;13.85;9.63;;;;;;;;;;5064201;27;96773;-72
2022/06/25 00:53:04;;;;;;;14.32;10.02;;;;;;;;;;5061304;27;97266;-73
2022/06/25 00:55:31;;;;;;;12.23;9.63;;;;;;;;;;5065033;27;95514;-73
2022/06/25 00:58:01;;;;;;;14.65;10.75;;;;;;;;;;5060398;27;97614;-72
2022/06/25 01:00:27;;;;;;;14.73;10.27;;;;;;;;;;5062895;27;95485;-72
2022/06/25 01:02:54;;;;;;;16.08;10.70;;;;;;;;;;5056929;27;96838;-73
2022/06/25 01:05:20;;;;;;;13.77;9.60;;;;;;;;;;5058453;27;97269;-72
2022/06/25 01:07:48;;;;;;;14.35;10.00;;;;;;;;;;5056184;27;96682;-72
2022/06/25 01:10:16;;;;;;;12.70;10.60;;;;;;;;;;5061239;27;97623;-71
2022/06/25 01:12:42;;;;;;;14.20;10.23;;;;;;;;;;5061613;27;97265;-70
2022/06/25 01:15:16;;;;;;;15.60;10.95;;;;;;;;;;5057250;27;95351;-73
2022/06/25 01:17:44;;;;;;;16.73;10.48;;;;;;;;;;5066519;27;97500;-73
2022/06/25 01:20:12;;;;;;;14.13;9.75;;;;;;;;;;5056674;27;95438;-72
2022/06/25 01:22:38;;;;;;;17.45;10.30;;;;;;;;;;5061345;27;96446;-73
2022/06/25 01:25:08;;;;;;;13.43;9.75;;;;;;;;;;5066173;27;97318;-73
2022/06/25 01:27:34;;;;;;;17.52;10.88;;;;;;;;;;5061112;27;95487;-73
2022/06/25 01:30:01;;;;;;;14.23;10.27;;;;;;;;;;5065428;27;97081;-72
2022/06/25 01:32:27;;;;;;;14.35;9.70;;;;;;;;;;5054147;27;96605;-73
2022/06/25 01:34:54;;;;;;;12.70;9.63;;;;;;;;;;5062203;27;95390;-72
2022/06/25 01:37:21;;;;;;;11.98;9.85;;;;;;;;;;5060547;27;96757;-72
2022/06/25 01:39:54;;;;;;;14.65;10.02;;;;;;;;;;5072699;27;97511;-72
2022/06/25 01:45:08;;;;;;;15.82;9.80;;;;;;;;;;5061935;27;96349;-72
2022/06/25 01:47:35;;;;;;;14.65;9.57;;;;;;;;;;5065920;27;96471;-72
2022/06/25 01:50:02;;;;;;;12.98;9.90;;;;;;;;;;5066008;27;95778;-72
2022/06/25 01:52:29;;;;;;;15.77;9.50;;;;;;;;;;5064077;27;96703;-72
2022/06/25 01:54:56;;;;;;;15.35;9.52;;;;;;;;;;5067047;27;95480;-72
2022/06/25 01:57:23;;;;;;;13.45;8.95;;;;;;;;;;5067727;27;96427;-73
2022/06/25 01:59:51;;;;;;;16.05;9.32;;;;;;;;;;5070715;27;97260;-72
2022/06/25 02:02:18;;;;;;;13.82;9.32;;;;;;;;;;5065606;27;95702;-72
2022/06/25 02:04:44;;;;;;;16.80;9.32;;;;;;;;;;5066063;27;97331;-74
2022/06/25 02:07:10;;;;;;;12.88;9.10;;;;;;;;;;5057032;27;96010;-72
2022/06/25 02:09:37;;;;;;;14.73;9.10;;;;;;;;;;5058302;27;97225;-72
2022/06/25 02:12:04;;;;;;;13.02;8.48;;;;;;;;;;5063766;27;97317;-72
2022/06/25 02:14:31;;;;;;;11.68;9.20;;;;;;;;;;5062440;27;95752;-72
2022/06/25 02:16:57;;;;;;;19.17;9.48;;;;;;;;;;5064013;27;97179;-72
2022/06/25 02:19:23;;;;;;;12.25;8.77;;;;;;;;;;5060307;27;97471;-72
2022/06/25 02:21:50;;;;;;;13.88;8.80;;;;;;;;;;5062789;27;95979;-73
2022/06/25 02:24:18;;;;;;;15.45;8.20;;;;;;;;;;5069243;27;96814;-72
2022/06/25 02:26:45;;;;;;;13.55;8.45;;;;;;;;;;5067604;27;95504;-72
2022/06/25 02:29:12;;;;;;;10.48;7.82;;;;;;;;;;5061231;27;98123;-73
2022/06/25 02:31:38;;;;;;;14.85;8.60;;;;;;;;;;5064427;27;97316;-71
2022/06/25 02:34:05;;;;;;;11.70;8.07;;;;;;;;;;5058021;27;96463;-73
2022/06/25 02:36:31;;;;;;;11.98;8.15;;;;;;;;;;5061725;27;96899;-72
2022/06/25 02:38:58;;;;;;;12.20;7.80;;;;;;;;;;5065429;27;97453;-72
2022/06/25 02:41:24;;;;;;;11.90;8.07;;;;;;;;;;5059568;27;96112;-72
2022/06/25 02:43:50;;;;;;;12.35;7.70;;;;;;;;;;5070412;27;97173;-72
2022/06/25 02:46:17;;;;;;;10.50;7.70;;;;;;;;;;5066551;27;96128;-73
2022/06/25 02:48:43;;;;;;;16.77;7.93;;;;;;;;;;5054168;27;96848;-72
2022/06/25 02:51:10;;;;;;;15.82;8.18;;;;;;;;;;5060466;27;97285;-72
2022/06/25 02:53:36;;;;;;;16.05;7.82;;;;;;;;;;5060249;27;95511;-72
2022/06/25 02:58:58;;;;;;;13.88;7.80;;;;;;;;;;5065077;27;97259;-73
2022/06/25 03:01:28;;;;;;;13.68;8.10;;;;;;;;;;5066531;27;96144;-72
2022/06/25 03:03:58;;;;;;;11.07;7.40;;;;;;;;;;5064905;27;97730;-72
2022/06/25 03:06:24;;;;;;;10.63;7.00;;;;;;;;;;5059133;27;97583;-72
2022/06/25 03:08:51;;;;;;;10.38;7.47;;;;;;;;;;5055611;27;96708;-72
2022/06/25 03:11:18;;;;;;;13.45;7.90;;;;;;;;;;5056269;27;97148;-72
2022/06/25 03:13:45;;;;;;;9.48;7.10;;;;;;;;;;5056147;27;95791;-73
2022/06/25 03:16:12;;;;;;;12.82;7.13;;;;;;;;;;5059980;27;96841;-72
2022/06/25 03:18:39;;;;;;;12.75;7.35;;;;;;;;;;5060473;27;97298;-72
2022/06/25 03:21:05;;;;;;;10.68;6.43;;;;;;;;;;5061194;27;95521;-72
2022/06/25 03:23:32;;;;;;;10.98;7.03;;;;;;;;;;5062586;27;96949;-72
2022/06/25 03:25:58;;;;;;;12.45;6.90;;;;;;;;;;5063673;27;97365;-73
2022/06/25 03:28:25;;;;;;;9.13;6.53;;;;;;;;;;5058858;27;95711;-72
2022/06/25 03:30:51;;;;;;;10.90;6.13;;;;;;;;;;5060859;27;97286;-73
2022/06/25 03:33:17;;;;;;;9.55;6.05;;;;;;;;;;5063164;27;95589;-72
2022/06/25 03:35:44;;;;;;;9.60;6.03;;;;;;;;;;5057177;27;96175;-73
2022/06/25 03:38:10;;;;;;;11.15;5.65;;;;;;;;;;5061866;27;97456;-73
2022/06/25 03:40:37;;;;;;;10.27;5.70;;;;;;;;;;5065013;27;95398;-74
2022/06/25 03:43:03;;;;;;;9.63;5.72;;;;;;;;;;5068813;27;96720;-73
2022/06/25 03:45:29;;;;;;;13.70;6.07;;;;;;;;;;5058148;27;97302;-72
2022/06/25 03:47:56;;;;;;;9.55;5.72;;;;;;;;;;5056234;27;95825;-72
2022/06/25 03:50:22;;;;;;;9.65;5.25;;;;;;;;;;5063579;27;96746;-72
2022/06/25 03:52:50;;;;;;;12.32;5.53;;;;;;;;;;5062318;27;95346;-72
2022/06/25 03:55:17;;;;;;;12.98;5.50;;;;;;;;;;5061109;27;97340;-72
2022/06/25 03:58:01;;;;;;;13.52;7.22;;;;;;;;;;5066731;27;97644;-72
2022/06/25 04:00:28;;;;;;;11.55;5.22;;;;;;;;;;5065380;27;96050;-72
2022/06/25 04:02:54;;;;;;;7.45;5.15;;;;;;;;;;5064370;27;97259;-72
2022/06/25 04:05:21;;;;;;;9.35;5.15;;;;;;;;;;5063038;27;97264;-73
2022/06/25 04:07:49;;;;;;;12.35;5.95;;;;;;;;;;5065024;27;95209;-72
2022/06/25 04:10:16;;;;;;;11.57;5.50;;;;;;;;;;5056844;27;96858;-72
2022/06/25 04:12:42;;;;;;;7.30;5.35;;;;;;;;;;5060297;27;97175;-71
2022/06/25 04:15:09;;;;;;;8.07;5.13;;;;;;;;;;5052638;27;96143;-74
2022/06/25 04:17:36;;;;;;;7.60;5.25;;;;;;;;;;5062597;27;97398;-72
2022/06/25 04:20:03;;;;;;;8.40;5.20;;;;;;;;;;5064144;27;95422;-71
2022/06/25 04:22:29;;;;;;;10.35;5.13;;;;;;;;;;5062751;27;97133;-72
2022/06/25 04:24:56;;;;;;;9.55;5.28;;;;;;;;;;5059530;27;97337;-71
2022/06/25 04:30:07;;;;;;;13.18;5.28;;;;;;;;;;5063186;27;96785;-71
2022/06/25 04:32:34;;;;;;;7.75;4.93;;;;;;;;;;5059607;27;98049;-72
2022/06/25 04:35:00;;;;;;;9.43;5.03;;;;;;;;;;5061829;27;96230;-71
2022/06/25 04:37:26;;;;;;;10.25;5.38;;;;;;;;;;5054053;27;97475;-71
2022/06/25 04:39:53;;;;;;;10.52;5.63;;;;;;;;;;5063999;27;95304;-71
2022/06/25 04:42:19;;;;;;;9.18;4.82;;;;;;;;;;5060547;27;96878;-71
2022/06/25 04:44:46;;;;;;;8.77;5.25;;;;;;;;;;5062248;27;100151;-71
2022/06/25 04:47:13;;;;;;;9.82;5.18;;;;;;;;;;5064378;27;96726;-71
2022/06/25 04:49:39;;;;;;;8.55;4.95;;;;;;;;;;5063655;27;96881;-71
2022/06/25 04:52:08;;;;;;;7.72;5.10;;;;;;;;;;5057909;27;97210;-71
2022/06/25 04:54:34;;;;;;;9.55;5.28;;;;;;;;;;5053074;27;95578;-71
2022/06/25 04:57:01;;;;;;;7.80;4.60;;;;;;;;;;5067108;27;96885;-71
2022/06/25 04:59:28;;;;;;;8.73;4.43;;;;;;;;;;5055382;27;95715;-71
2022/06/25 05:01:54;;;;;;;9.27;3.53;;;;;;;;;;5064492;27;96826;-71
2022/06/25 19:31:34;;;;;;;8.45;6.22;;;;;;;;;;4994011;28;96062;-72
2022/06/25 19:34:00;;;;;;;6.78;5.07;;;;;;;;;;4974616;28;98128;-71
2022/06/25 19:36:28;;;;;;;8.23;5.70;;;;;;;;;;4962477;28;95760;-70
2022/06/25 19:38:58;;;;;;;11.05;6.30;;;;;;;;;;4981743;28;96738;-70
2022/06/25 19:41:25;;;;;;;8.00;5.78;;;;;;;;;;4974889;28;97354;-72
2022/06/25 19:43:52;;;;;;;9.27;5.68;;;;;;;;;;4978272;28;95318;-71
2022/06/25 19:46:19;;;;;;;10.13;5.70;;;;;;;;;;4972794;28;96710;-71
2022/06/25 19:48:45;;;;;;;8.38;5.65;;;;;;;;;;4972509;28;96178;-72
2022/06/25 19:51:11;;;;;;;9.82;5.72;;;;;;;;;;4983917;28;97759;-71
2022/06/25 19:53:38;;;;;;;9.57;5.82;;;;;;;;;;4975913;28;97270;-71
2022/06/25 19:56:04;;;;;;;10.48;6.03;;;;;;;;;;4968830;28;95625;-71
2022/06/25 19:58:31;;;;;;;8.65;5.80;;;;;;;;;;4966911;28;96769;-72
2022/06/25 20:00:57;;;;;;;9.93;5.82;;;;;;;;;;4979144;28;96536;-71
2022/06/25 20:03:23;;;;;;;10.20;5.63;;;;;;;;;;4978337;28;96838;-71
2022/06/25 20:05:50;;;;;;;10.68;5.82;;;;;;;;;;4974357;28;96794;-71
2022/06/25 20:08:16;;;;;;;16.30;6.20;;;;;;;;;;4972435;28;96921;-71
2022/06/25 20:10:43;;;;;;;8.00;6.10;;;;;;;;;;4964572;28;95318;-71
2022/06/25 20:13:10;;;;;;;11.20;6.07;;;;;;;;;;4970449;28;96777;-71
2022/06/25 20:15:39;;;;;;;13.88;6.53;;;;;;;;;;4964871;28;95965;-71
2022/06/25 20:18:06;;;;;;;8.77;6.30;;;;;;;;;;4965558;28;97537;-71
2022/06/25 20:20:33;;;;;;;10.90;6.95;;;;;;;;;;4971825;28;98987;-71
2022/06/25 20:22:59;;;;;;;11.95;7.90;;;;;;;;;;4974318;28;96517;-71
2022/06/25 20:25:27;;;;;;;10.63;7.10;;;;;;;;;;4967317;28;96835;-71
2022/06/25 20:27:53;;;;;;;9.40;7.35;;;;;;;;;;4966766;28;97033;-72
2022/06/25 20:30:20;;;;;;;11.65;7.82;;;;;;;;;;4976687;28;95956;-71
2022/06/25 20:32:46;;;;;;;10.10;7.55;;;;;;;;;;4968576;28;99787;-72
2022/06/25 20:35:15;;;;;;;14.55;7.43;;;;;;;;;;4991452;28;97350;-70
2022/06/25 20:37:43;;;;;;;13.82;6.95;;;;;;;;;;4952979;28;97211;-71
2022/06/25 20:40:10;;;;;;;25.98;8.15;;;;;;;;;;4968056;28;96154;-71
2022/06/25 20:42:39;;;;;;;11.75;7.60;;;;;;;;;;4950680;28;96349;-71
2022/06/25 20:45:06;;;;;;;12.65;7.72;;;;;;;;;;4951021;28;96863;-71
2022/06/25 20:47:32;;;;;;;20.23;11.02;;;;;;;;;;4951823;28;97972;-71
2022/06/25 20:50:00;;;;;;;14.82;9.07;;;;;;;;;;4950111;28;96055;-71
2022/06/25 20:52:26;;;;;;;14.55;8.93;;;;;;;;;;4951654;28;97404;-72
2022/06/25 20:54:53;;;;;;;15.02;10.07;;;;;;;;;;4955289;28;97870;-72
2022/06/25 20:57:21;;;;;;;18.25;10.20;;;;;;;;;;4954153;28;95345;-72
2022/06/25 20:59:47;;;;;;;17.92;9.73;;;;;;;;;;4961139;28;97280;-71
2022/06/25 21:02:15;;;;;;;13.88;9.95;;;;;;;;;;4957471;28;95898;-72
2022/06/25 21:10:18;;;;;;;16.10;9.63;;;;;;;;;;4950669;28;95966;-72
2022/06/25 21:12:44;;;;;;;15.43;10.43;;;;;;;;;;4956979;28;96988;-72
2022/06/25 21:15:11;;;;;;;18.08;10.98;;;;;;;;;;4951974;28;97333;-71
2022/06/25 21:17:37;;;;;;;17.55;10.38;;;;;;;;;;4949036;28;96685;-71
2022/06/25 21:20:04;;;;;;;17.10;10.38;;;;;;;;;;4964587;28;96817;-71
2022/06/25 21:22:31;;;;;;;20.60;10.98;;;;;;;;;;4963546;28;96063;-72
2022/06/25 21:24:57;;;;;;;19.15;10.80;;;;;;;;;;4949759;28;97121;-71
2022/06/25 21:27:23;;;;;;;20.13;10.88;;;;;;;;;;4950762;28;97228;-72
2022/06/25 21:29:50;;;;;;;15.25;9.98;;;;;;;;;;4955568;28;95978;-72
2022/06/25 21:32:16;;;;;;;21.67;10.50;;;;;;;;;;4956540;28;96908;-72
2022/06/25 21:34:43;;;;;;;17.65;10.45;;;;;;;;;;4963260;28;97159;-72
2022/06/25 21:37:09;;;;;;;23.48;10.70;;;;;;;;;;4963528;28;95231;-71
2022/06/25 21:39:36;;;;;;;18.15;10.73;;;;;;;;;;4965364;28;97399;-71
2022/06/25 21:42:02;;;;;;;17.25;11.13;;;;;;;;;;4955489;28;95662;-72
2022/06/25 21:44:29;;;;;;;21.55;10.98;;;;;;;;;;4965943;28;97191;-71
2022/06/25 21:46:55;;;;;;;22.02;10.98;;;;;;;;;;4969751;28;97827;-71
2022/06/25 21:49:21;;;;;;;22.73;11.52;;;;;;;;;;4967603;28;95369;-72
2022/06/25 21:51:48;;;;;;;19.83;11.52;;;;;;;;;;4959397;28;97105;-72
2022/06/25 21:54:14;;;;;;;23.10;12.60;;;;;;;;;;4952581;28;97389;-72
2022/06/25 21:56:41;;;;;;;20.17;11.88;;;;;;;;;;4959636;28;96692;-72
2022/06/25 21:59:07;;;;;;;24.80;12.60;;;;;;;;;;4957820;28;97107;-72
2022/06/25 22:01:33;;;;;;;23.67;12.32;;;;;;;;;;4961207;28;97359;-72
2022/06/25 22:04:00;;;;;;;19.48;12.68;;;;;;;;;;4959006;28;97452;-72
2022/06/25 22:06:27;;;;;;;19.73;12.65;;;;;;;;;;4957183;28;97407;-72
2022/06/25 22:08:53;;;;;;;21.42;13.10;;;;;;;;;;4948804;28;95565;-71
2022/06/25 22:11:19;;;;;;;25.40;13.38;;;;;;;;;;4949964;28;97107;-71
2022/06/25 22:13:46;;;;;;;31.10;13.80;;;;;;;;;;4964494;28;97435;-72
2022/06/25 22:16:12;;;;;;;29.33;14.15;;;;;;;;;;4954978;28;95852;-72
2022/06/25 22:18:39;;;;;;;25.65;15.00;;;;;;;;;;4965155;28;96601;-72
2022/06/25 22:21:05;;;;;;;24.77;14.82;;;;;;;;;;4956916;28;97791;-72
2022/06/25 22:23:32;;;;;;;22.00;13.82;;;;;;;;;;4951879;28;96310;-72
2022/06/25 22:25:59;;;;;;;25.15;14.27;;;;;;;;;;4951216;28;97252;-72
2022/06/25 22:28:26;;;;;;;39.72;15.27;;;;;;;;;;4950142;28;95548;-73
2022/06/25 22:30:53;;;;;;;26.42;15.15;;;;;;;;;;4956746;28;96730;-73
2022/06/25 22:33:20;;;;;;;32.75;16.75;;;;;;;;;;4951834;28;97852;-73
2022/06/25 22:35:46;;;;;;;33.42;15.68;;;;;;;;;;4952505;28;95440;-73
2022/06/25 22:38:13;;;;;;;31.05;16.35;;;;;;;;;;4953421;28;98664;-74
2022/06/25 22:40:40;;;;;;;26.65;15.43;;;;;;;;;;4952121;28;97496;-74
2022/06/25 22:43:09;;;;;;;31.25;16.65;;;;;;;;;;4958772;28;95592;-74
2022/06/25 22:45:36;;;;;;;33.75;16.77;;;;;;;;;;4949701;28;96141;-74
2022/06/25 22:48:03;;;;;;;31.38;16.80;;;;;;;;;;4952312;28;96455;-73
2022/06/25 22:50:29;;;;;;;30.25;15.82;;;;;;;;;;4964713;28;96300;-73
2022/06/25 22:53:16;;;;;;;41.55;16.08;;;;;;;;;;4953771;28;98787;-73
2022/06/25 22:55:42;;;;;;;32.28;15.63;;;;;;;;;;4949392;28;95684;-74
2022/06/25 22:58:08;;;;;;;26.98;14.77;;;;;;;;;;4949825;28;96971;-73
2022/06/25 23:00:35;;;;;;;26.98;14.57;;;;;;;;;;4975658;28;97497;-73
2022/06/25 23:03:01;;;;;;;28.55;14.30;;;;;;;;;;4948806;28;95756;-74
2022/06/25 23:05:28;;;;;;;19.65;13.07;;;;;;;;;;4952920;28;96789;-73
2022/06/25 23:07:54;;;;;;;23.85;13.95;;;;;;;;;;4955286;28;97330;-73
2022/06/25 23:10:21;;;;;;;22.67;14.57;;;;;;;;;;4951113;28;97157;-73
2022/06/25 23:12:48;;;;;;;28.60;15.23;;;;;;;;;;4952065;28;97217;-73
2022/06/25 23:15:16;;;;;;;25.58;15.48;;;;;;;;;;4961847;28;95402;-73
2022/06/25 23:17:44;;;;;;;26.27;14.73;;;;;;;;;;4955302;28;96767;-73
2022/06/25 23:20:11;;;;;;;21.30;13.73;;;;;;;;;;4948101;28;97437;-74
2022/06/25 23:22:37;;;;;;;26.77;12.82;;;;;;;;;;4961389;28;95978;-73
2022/06/25 23:25:05;;;;;;;23.13;13.18;;;;;;;;;;4952895;28;97110;-74
2022/06/25 23:27:31;;;;;;;22.27;13.40;;;;;;;;;;4959938;28;97598;-73
2022/06/25 23:29:58;;;;;;;23.75;14.63;;;;;;;;;;4952070;28;95436;-73
2022/06/25 23:32:25;;;;;;;24.15;14.82;;;;;;;;;;4957041;28;97216;-73
2022/06/25 23:34:51;;;;;;;21.90;14.02;;;;;;;;;;4949864;28;95497;-73
2022/06/25 23:37:18;;;;;;;19.50;13.02;;;;;;;;;;4965006;28;97274;-73
2022/06/25 23:39:44;;;;;;;23.65;15.07;;;;;;;;;;4953876;28;97297;-74
2022/06/25 23:42:10;;;;;;;22.60;14.65;;;;;;;;;;4953712;28;96509;-74
2022/06/25 23:44:37;;;;;;;23.70;14.25;;;;;;;;;;4949328;28;96910;-74
2022/06/25 23:47:03;;;;;;;26.38;15.35;;;;;;;;;;4961945;28;97323;-74
2022/06/25 23:49:30;;;;;;;27.92;15.68;;;;;;;;;;4961492;28;95532;-73
2022/06/25 23:51:56;;;;;;;26.23;14.88;;;;;;;;;;4959081;28;97311;-73
2022/06/25 23:54:22;;;;;;;30.05;14.90;;;;;;;;;;4950150;28;95256;-73
2022/06/25 23:56:49;;;;;;;27.77;15.98;;;;;;;;;;4960998;28;97268;-73
2022/06/25 23:59:15;;;;;;;25.58;14.50;;;;;;;;;;4947562;28;97854;-73
